Time;durP1;ratioP1;P1;durP2;ratioP2;P2;SDS_P1;SDS_P2;PMS_P1;PMS_P2;Temp;Humidity;BMP_temperature;BMP_pressure;BME280_temperature;BME280_humidity;BME280_pressure;Samples;Min_cycle;Max_cycle;Signal;HPM_P1;HPM_P2
2022/05/09 00:02:07;;;;;;;4.35;3.40;;;;;;;12.15;53.39;95328.50;5117324;28;20188;-68
2022/05/09 00:04:35;;;;;;;4.35;3.38;;;;;;;12.12;53.30;95335.53;5116644;28;20258;-68
2022/05/09 00:07:02;;;;;;;4.35;3.50;;;;;;;12.10;53.79;95324.06;5116754;28;20194;-68
2022/05/09 00:09:29;;;;;;;4.90;3.63;;;;;;;12.09;54.04;95333.53;5116054;28;20199;-68
2022/05/09 00:11:55;;;;;;;4.38;3.50;;;;;;;12.11;54.01;95338.69;5116776;28;20180;-68
2022/05/09 00:14:22;;;;;;;5.60;3.75;;;;;;;12.10;54.16;95337.09;5115936;28;20202;-68
2022/05/09 00:16:50;;;;;;;5.82;3.85;;;;;;;12.06;53.63;95339.75;5116593;28;20195;-68
2022/05/09 00:19:20;;;;;;;4.38;3.45;;;;;;;12.03;54.21;95332.97;5116709;28;20180;-68
2022/05/09 00:21:50;;;;;;;4.90;3.70;;;;;;;12.01;53.66;95337.25;5115479;28;20203;-68
2022/05/09 00:24:18;;;;;;;3.58;3.28;;;;;;;11.99;53.83;95337.59;5116422;28;20195;-68
2022/05/09 00:26:45;;;;;;;4.20;3.63;;;;;;;11.97;54.78;95339.91;5116796;28;20187;-69
2022/05/09 00:29:14;;;;;;;5.40;3.80;;;;;;;11.94;54.22;95337.84;5115723;28;20626;-69
2022/05/09 00:31:43;;;;;;;5.50;3.42;;;;;;;11.91;54.01;95341.34;5115895;28;20195;-69
2022/05/09 00:34:11;;;;;;;4.40;3.75;;;;;;;11.84;54.95;95341.16;5117064;28;20179;-69
2022/05/09 00:36:38;;;;;;;4.18;3.50;;;;;;;11.74;54.54;95345.19;5116141;28;20199;-68
2022/05/09 00:39:07;;;;;;;3.92;3.55;;;;;;;11.71;54.53;95339.56;5116728;28;20240;-68
2022/05/09 00:41:37;;;;;;;4.53;3.65;;;;;;;11.71;54.31;95351.44;5116003;28;20215;-68
2022/05/09 00:44:09;;;;;;;4.80;3.72;;;;;;;11.66;54.54;95351.69;5116582;28;20184;-68
2022/05/09 00:46:37;;;;;;;3.88;3.58;;;;;;;11.64;54.23;95342.94;5116885;28;20241;-69
2022/05/09 00:49:15;;;;;;;4.90;3.42;;;;;;;11.63;54.28;95349.63;5115727;28;20199;-69
2022/05/09 00:51:43;;;;;;;4.38;3.80;;;;;;;11.60;53.95;95350.34;5114807;28;20196;-69
2022/05/09 00:54:11;;;;;;;4.40;3.42;;;;;;;11.56;54.29;95353.00;5116802;28;20290;-69
2022/05/09 00:56:42;;;;;;;6.72;3.58;;;;;;;11.52;54.37;95346.56;5116299;28;20235;-69
2022/05/09 00:59:12;;;;;;;3.88;3.47;;;;;;;11.49;54.34;95352.00;5115420;28;20577;-68
2022/05/09 01:01:40;;;;;;;4.07;3.35;;;;;;;11.47;54.35;95348.78;5115683;28;20211;-68
2022/05/09 01:04:11;;;;;;;4.05;3.55;;;;;;;11.44;53.85;95360.56;5116612;28;20183;-68
2022/05/09 01:06:38;;;;;;;5.35;3.92;;;;;;;11.42;54.18;95357.31;5115741;28;20199;-68
2022/05/09 01:09:05;;;;;;;4.15;3.25;;;;;;;11.39;54.29;95350.53;5116573;28;20187;-68
2022/05/09 01:11:34;;;;;;;3.47;3.17;;;;;;;11.38;53.57;95356.41;5116359;28;20186;-68
2022/05/09 01:14:05;;;;;;;3.35;3.05;;;;;;;11.34;54.16;95364.59;5115629;28;20198;-68
2022/05/09 01:16:33;;;;;;;3.70;3.40;;;;;;;11.31;54.28;95357.81;5116048;28;20522;-68
2022/05/09 01:19:02;;;;;;;4.13;3.40;;;;;;;11.29;54.39;95360.13;5115700;28;20204;-68
2022/05/09 01:21:33;;;;;;;4.93;3.65;;;;;;;11.25;54.46;95353.69;5116290;28;20218;-68
2022/05/09 01:24:01;;;;;;;3.75;3.25;;;;;;;11.23;54.79;95357.97;5115125;28;20223;-68
2022/05/09 01:26:28;;;;;;;3.42;3.13;;;;;;;11.16;54.40;95355.00;5118999;28;20208;-68
2022/05/09 01:28:58;;;;;;;6.45;3.55;;;;;;;11.14;54.75;95354.53;5120199;28;20245;-68
2022/05/09 01:31:26;;;;;;;4.32;3.78;;;;;;;11.08;54.98;95357.53;5118920;28;20188;-68
2022/05/09 01:33:54;;;;;;;4.43;3.97;;;;;;;11.03;55.14;95355.00;5118786;28;20294;-67
2022/05/09 01:36:25;;;;;;;3.47;3.17;;;;;;;10.97;55.24;95347.34;5118923;28;20210;-67
2022/05/09 01:38:57;;;;;;;6.22;3.60;;;;;;;10.94;55.21;95359.88;5118438;28;20326;-67
2022/05/09 01:41:24;;;;;;;4.10;3.70;;;;;;;10.93;55.71;95360.22;5119885;27;20208;-67
2022/05/09 01:43:55;;;;;;;4.70;3.30;;;;;;;10.90;55.04;95358.16;5118535;28;20196;-67
2022/05/09 01:46:24;;;;;;;5.15;3.53;;;;;;;10.87;54.94;95356.09;5118857;28;20272;-67
2022/05/09 01:51:36;;;;;;;4.90;3.28;;;;;;;10.78;55.56;95356.22;5118006;28;20199;-67
2022/05/09 01:54:04;;;;;;;4.63;3.13;;;;;;;10.71;55.79;95356.00;5118355;28;20200;-68
2022/05/09 01:56:33;;;;;;;3.95;3.55;;;;;;;10.69;56.42;95356.34;5119731;28;20279;-68
2022/05/09 01:59:01;;;;;;;5.55;3.38;;;;;;;10.69;56.59;95352.78;5118048;28;20210;-68
2022/05/09 02:01:29;;;;;;;4.30;3.55;;;;;;;10.68;56.44;95353.94;5118186;28;20211;-68
2022/05/09 02:03:58;;;;;;;5.72;3.47;;;;;;;10.66;56.04;95351.53;5117985;28;20203;-67
2022/05/09 02:06:25;;;;;;;4.53;3.67;;;;;;;10.67;56.21;95346.81;5119150;28;20194;-68
2022/05/09 02:08:52;;;;;;;4.47;3.40;;;;;;;10.65;55.55;95355.44;5118771;28;20210;-68
2022/05/09 02:11:20;;;;;;;4.47;3.78;;;;;;;10.57;56.49;95350.84;5118647;28;20507;-68
2022/05/09 02:13:47;;;;;;;4.07;3.70;;;;;;;10.49;56.84;95355.31;5118464;28;20603;-67
2022/05/09 02:16:14;;;;;;;4.35;3.53;;;;;;;10.46;56.67;95356.03;5118560;28;20186;-68
2022/05/09 02:18:41;;;;;;;3.78;3.38;;;;;;;10.36;56.45;95365.56;5118497;28;20198;-68
2022/05/09 02:21:08;;;;;;;5.10;3.97;;;;;;;10.23;56.92;95361.16;5118663;28;20646;-68
2022/05/09 02:23:35;;;;;;;6.00;3.90;;;;;;;10.23;57.26;95371.38;5117846;28;20200;-68
2022/05/09 02:26:02;;;;;;;5.18;3.58;;;;;;;10.17;56.58;95370.81;5117942;28;20222;-68
2022/05/09 02:28:30;;;;;;;4.78;4.03;;;;;;;10.09;56.47;95375.28;5118504;28;20196;-68
2022/05/09 02:30:57;;;;;;;4.15;3.70;;;;;;;10.08;57.27;95367.34;5118301;28;20602;-68
2022/05/09 02:33:24;;;;;;;5.15;3.90;;;;;;;10.10;57.16;95370.56;5118781;28;20187;-68
2022/05/09 02:35:51;;;;;;;4.15;3.60;;;;;;;10.13;57.24;95378.97;5118003;28;20187;-68
2022/05/09 02:38:19;;;;;;;5.45;3.95;;;;;;;10.16;57.20;95371.94;5117518;28;20188;-68
2022/05/09 02:40:46;;;;;;;7.00;3.88;;;;;;;10.17;57.59;95375.50;5117757;28;20246;-67
2022/05/09 02:43:13;;;;;;;4.30;3.90;;;;;;;10.19;57.52;95376.75;5117378;28;20199;-67
2022/05/09 02:45:42;;;;;;;5.07;3.92;;;;;;;10.17;58.42;95378.25;5117619;28;20203;-68
2022/05/09 02:48:10;;;;;;;5.75;4.18;;;;;;;10.12;57.82;95376.53;5117453;28;20199;-68
2022/05/09 02:50:36;;;;;;;5.80;3.97;;;;;;;10.02;57.37;95377.78;5117925;28;20180;-68
2022/05/09 02:53:03;;;;;;;6.75;4.35;;;;;;;10.00;58.14;95376.50;5118422;28;20180;-68
2022/05/09 02:55:31;;;;;;;6.95;4.25;;;;;;;10.00;58.22;95382.81;5118012;28;20282;-68
2022/05/09 02:57:58;;;;;;;4.53;4.10;;;;;;;9.95;57.78;95379.47;5117273;28;20621;-68
2022/05/09 03:00:29;;;;;;;6.40;3.92;;;;;;;9.93;58.07;95379.03;5117287;28;20268;-67
2022/05/09 03:05:43;;;;;;;8.25;4.82;;;;;;;9.89;58.11;95390.72;5118470;28;20184;-70
2022/05/09 03:08:12;;;;;;;8.45;4.82;;;;;;;9.84;59.35;95392.88;5118266;28;20207;-70
2022/05/09 03:10:39;;;;;;;7.35;4.72;;;;;;;9.77;59.17;95387.16;5118493;28;20184;-69
2022/05/09 03:13:08;;;;;;;8.43;4.53;;;;;;;9.76;58.79;95399.28;5118285;28;20190;-69
2022/05/09 03:15:38;;;;;;;5.78;4.60;;;;;;;9.75;58.69;95401.25;5117048;28;20215;-66
2022/05/09 03:18:07;;;;;;;8.90;4.15;;;;;;;9.79;59.16;95404.94;5117809;28;20191;-66
2022/05/09 03:20:34;;;;;;;5.97;4.20;;;;;;;9.84;58.89;95398.38;5117735;28;20253;-68
2022/05/09 03:23:02;;;;;;;5.50;4.47;;;;;;;9.89;59.36;95400.94;5116965;28;20650;-67
2022/05/09 03:25:29;;;;;;;6.60;4.40;;;;;;;9.91;58.76;95403.34;5117864;28;20638;-67
2022/05/09 03:27:56;;;;;;;4.82;3.80;;;;;;;9.87;58.84;95414.25;5117980;28;20592;-68
2022/05/09 03:30:23;;;;;;;7.00;4.00;;;;;;;9.91;59.26;95408.84;5117446;28;20200;-67
2022/05/09 03:32:50;;;;;;;7.43;4.65;;;;;;;9.88;59.06;95413.91;5118463;28;20184;-67
2022/05/09 03:35:18;;;;;;;8.65;5.28;;;;;;;9.77;59.13;95414.69;5117479;28;20200;-67
2022/05/09 03:37:45;;;;;;;8.23;5.10;;;;;;;9.70;59.62;95408.94;5117565;28;20183;-66
2022/05/09 03:40:13;;;;;;;8.60;5.53;;;;;;;9.63;59.64;95423.25;5116900;28;20235;-65
2022/05/09 03:42:40;;;;;;;10.23;6.00;;;;;;;9.55;59.68;95413.09;5116833;28;20229;-65
2022/05/09 03:45:08;;;;;;;8.70;5.53;;;;;;;9.48;59.88;95412.84;5116113;28;20628;-65
2022/05/09 03:47:35;;;;;;;10.45;5.95;;;;;;;9.49;61.04;95415.25;5116471;28;20232;-65
2022/05/09 03:50:01;;;;;;;11.13;5.57;;;;;;;9.55;60.49;95418.59;5116717;28;20192;-65
2022/05/09 03:52:30;;;;;;;7.55;5.47;;;;;;;9.55;59.84;95416.66;5116774;28;20279;-65
2022/05/09 03:54:57;;;;;;;9.85;5.38;;;;;;;9.56;60.14;95421.03;5116658;28;20200;-65
2022/05/09 03:57:24;;;;;;;8.07;4.95;;;;;;;9.54;60.51;95417.78;5116837;28;20184;-65
2022/05/09 03:59:51;;;;;;;7.95;5.07;;;;;;;9.60;60.92;95419.22;5115888;28;20192;-65
2022/05/09 04:02:19;;;;;;;7.78;5.50;;;;;;;9.64;60.76;95420.13;5116889;28;20219;-65
2022/05/09 04:04:45;;;;;;;9.55;5.60;;;;;;;9.69;61.02;95421.88;5116190;28;20195;-65
2022/05/09 04:07:12;;;;;;;10.88;5.80;;;;;;;9.71;60.95;95419.59;5117178;28;20195;-66
2022/05/09 04:09:41;;;;;;;12.48;6.32;;;;;;;9.72;61.62;95415.69;5117111;28;20196;-69
2022/05/09 04:12:08;;;;;;;11.02;5.88;;;;;;;9.74;60.99;95416.16;5116771;28;20215;-69
2022/05/09 04:17:19;;;;;;;12.60;6.10;;;;;;;9.75;61.04;95425.22;5115834;28;20187;-65
2022/05/09 04:19:46;;;;;;;12.38;6.45;;;;;;;9.76;61.54;95413.84;5115783;28;20253;-66
2022/05/09 04:22:12;;;;;;;11.60;6.60;;;;;;;9.81;61.04;95415.63;5116090;28;20663;-67
2022/05/09 04:24:41;;;;;;;11.70;7.32;;;;;;;9.84;60.99;95418.50;5116904;28;20180;-65
2022/05/09 04:27:07;;;;;;;12.20;7.05;;;;;;;9.87;61.06;95422.50;5115997;28;20195;-65
2022/05/09 04:29:34;;;;;;;10.07;7.55;;;;;;;9.89;61.26;95423.78;5115486;28;20192;-65
2022/05/09 04:32:01;;;;;;;11.15;6.75;;;;;;;9.91;61.65;95419.88;5115694;28;20203;-65
2022/05/09 04:34:28;;;;;;;12.90;7.45;;;;;;;9.97;61.06;95430.34;5116769;28;20194;-65
2022/05/09 04:36:55;;;;;;;12.63;6.75;;;;;;;10.00;61.40;95426.91;5115777;28;20188;-66
2022/05/09 04:39:22;;;;;;;7.95;6.25;;;;;;;10.06;61.34;95424.75;5116499;28;20266;-65
2022/05/09 04:41:51;;;;;;;8.20;6.32;;;;;;;10.09;60.67;95422.13;5115298;28;20211;-65
2022/05/09 04:44:17;;;;;;;8.07;5.80;;;;;;;10.12;60.19;95429.69;5115542;28;20195;-65
2022/05/09 04:46:45;;;;;;;7.80;5.47;;;;;;;10.19;60.40;95431.09;5115280;28;20623;-65
2022/05/09 04:49:12;;;;;;;4.57;4.18;;;;;;;10.29;60.69;95434.25;5115627;28;20620;-65
2022/05/09 04:51:39;;;;;;;8.95;6.00;;;;;;;10.39;60.30;95429.44;5115603;28;20286;-65
2022/05/09 04:54:06;;;;;;;12.75;8.63;;;;;;;10.49;60.10;95424.25;5116753;28;20183;-65
2022/05/09 04:56:32;;;;;;;13.65;10.73;;;;;;;10.57;59.84;95434.41;5115255;28;20203;-66
2022/05/09 04:59:01;;;;;;;19.02;11.60;;;;;;;10.66;59.24;95431.53;5114896;28;20200;-65
2022/05/09 05:01:28;;;;;;;18.42;13.18;;;;;;;10.76;59.07;95439.34;5115470;28;20184;-65
2022/05/09 05:03:54;;;;;;;16.50;10.93;;;;;;;10.78;58.91;95441.75;5114853;28;20286;-65
2022/05/09 05:06:21;;;;;;;12.40;8.27;;;;;;;10.82;59.44;95434.38;5115156;28;20199;-65
2022/05/09 05:08:48;;;;;;;14.20;8.70;;;;;;;10.84;58.57;95437.63;5115111;28;20206;-65
2022/05/09 05:11:15;;;;;;;15.48;11.77;;;;;;;10.88;58.86;95438.53;5114692;28;20192;-65
2022/05/09 05:13:42;;;;;;;9.82;8.77;;;;;;;10.92;58.69;95433.91;5115298;28;20184;-65
2022/05/09 05:16:10;;;;;;;11.98;7.88;;;;;;;10.94;58.42;95431.63;5115487;28;20219;-65
2022/05/09 05:18:37;;;;;;;10.27;8.38;;;;;;;10.95;58.35;95443.47;5116003;28;20190;-65
2022/05/09 05:21:11;;;;;;;12.20;10.95;;;;;;;10.99;58.34;95433.34;5115932;28;20184;-65
2022/05/09 05:23:38;;;;;;;12.85;11.15;;;;;;;11.01;59.46;95442.09;5114775;28;20215;-65
2022/05/09 05:26:05;;;;;;;12.52;10.93;;;;;;;10.99;59.33;95438.88;5115431;28;20184;-65
2022/05/09 05:28:33;;;;;;;15.60;12.40;;;;;;;10.97;60.12;95432.91;5114719;28;20207;-65
2022/05/09 05:31:13;;;;;;;14.60;12.70;;;;;;;10.97;60.06;95441.19;5115055;28;20200;-65
2022/05/09 05:33:40;;;;;;;13.68;12.20;;;;;;;10.99;60.03;95436.91;5115856;28;20180;-65
2022/05/09 05:36:07;;;;;;;16.17;12.85;;;;;;;11.03;59.82;95434.25;5116022;28;20188;-65
2022/05/09 05:38:35;;;;;;;15.75;13.05;;;;;;;11.06;60.24;95433.56;5115411;28;20195;-65
2022/05/09 05:41:02;;;;;;;14.90;12.50;;;;;;;11.09;60.48;95439.19;5115705;28;20596;-65
2022/05/09 05:43:29;;;;;;;14.90;12.98;;;;;;;11.12;61.70;95446.00;5115763;28;20291;-65
2022/05/09 05:45:56;;;;;;;16.20;14.52;;;;;;;11.22;59.62;95441.94;5115154;28;20198;-65
2022/05/09 05:48:25;;;;;;;21.02;16.02;;;;;;;11.32;59.68;95441.47;5115179;28;20214;-65
2022/05/09 05:50:52;;;;;;;17.50;15.73;;;;;;;11.35;60.79;95439.97;5115546;28;20180;-65
2022/05/09 05:53:20;;;;;;;13.15;11.80;;;;;;;11.36;60.46;95439.59;5115583;28;20267;-65
2022/05/09 05:55:46;;;;;;;12.48;8.85;;;;;;;11.42;59.43;95440.97;5115672;28;20257;-65
2022/05/09 05:58:13;;;;;;;11.23;9.52;;;;;;;11.50;58.45;95439.22;5114773;28;20196;-65
2022/05/09 06:00:40;;;;;;;9.65;8.75;;;;;;;11.52;59.52;95440.50;5115192;28;20195;-65
2022/05/09 06:03:08;;;;;;;10.25;9.10;;;;;;;11.52;59.43;95440.50;5115582;28;20200;-65
2022/05/09 06:05:37;;;;;;;9.20;8.30;;;;;;;11.54;59.12;95431.84;5115510;28;20198;-65
2022/05/09 06:08:04;;;;;;;7.50;6.38;;;;;;;11.60;58.03;95440.72;5115183;28;20199;-65
2022/05/09 06:10:31;;;;;;;8.00;6.88;;;;;;;11.66;57.28;95439.31;5115298;28;20212;-65
2022/05/09 06:13:00;;;;;;;8.30;7.30;;;;;;;11.70;57.95;95441.00;5118190;28;20219;-65
2022/05/09 06:15:28;;;;;;;8.35;6.85;;;;;;;11.74;58.01;95443.88;5118160;28;20195;-65
2022/05/09 06:17:56;;;;;;;7.10;6.50;;;;;;;11.74;57.62;95439.16;5118399;28;20295;-65
2022/05/09 06:20:23;;;;;;;6.70;6.10;;;;;;;11.79;57.67;95438.09;5119343;28;20207;-65
2022/05/09 06:22:54;;;;;;;7.28;6.18;;;;;;;11.87;56.95;95444.66;5119158;28;20214;-65
2022/05/09 06:25:22;;;;;;;6.88;6.13;;;;;;;11.96;56.96;95443.34;5119265;28;20246;-65
2022/05/09 06:27:49;;;;;;;7.35;6.00;;;;;;;11.99;57.56;95441.84;5119295;28;20188;-65
2022/05/09 06:30:17;;;;;;;7.85;6.00;;;;;;;12.03;57.91;95445.50;5117967;28;20192;-65
2022/05/09 06:32:45;;;;;;;7.15;6.45;;;;;;;12.07;57.66;95437.31;5118206;28;20222;-65
2022/05/09 06:35:15;;;;;;;8.55;7.20;;;;;;;12.14;56.25;95437.50;5117641;28;20196;-65
2022/05/09 06:37:42;;;;;;;11.05;7.20;;;;;;;12.23;55.06;95436.16;5117485;28;20264;-65
2022/05/09 06:40:12;;;;;;;9.65;7.57;;;;;;;12.30;54.97;95432.78;5118240;28;20219;-65
2022/05/09 06:42:39;;;;;;;7.90;7.13;;;;;;;12.36;54.54;95433.34;5118392;28;20284;-65
2022/05/09 06:45:07;;;;;;;7.18;6.47;;;;;;;12.42;54.60;95435.50;5117177;28;20195;-65
2022/05/09 06:47:35;;;;;;;8.18;7.35;;;;;;;12.45;53.95;95426.47;5116483;28;20207;-65
2022/05/09 06:50:02;;;;;;;8.18;7.38;;;;;;;12.47;55.70;95434.44;5117890;28;20180;-65
2022/05/09 06:52:29;;;;;;;8.18;6.90;;;;;;;12.50;55.27;95440.06;5117795;28;20206;-65
2022/05/09 06:54:56;;;;;;;9.90;7.43;;;;;;;12.52;54.64;95439.69;5117080;28;20203;-65
2022/05/09 06:57:26;;;;;;;9.40;7.18;;;;;;;12.57;55.67;95436.66;5117184;28;20200;-65
2022/05/09 06:59:52;;;;;;;10.88;7.82;;;;;;;12.61;55.49;95434.78;5117005;28;20200;-65
2022/05/09 07:02:19;;;;;;;12.20;10.77;;;;;;;12.71;54.92;95431.50;5118156;28;20210;-65
2022/05/09 07:04:46;;;;;;;14.88;12.20;;;;;;;12.83;54.06;95430.59;5118113;28;20191;-65
2022/05/09 07:07:13;;;;;;;13.98;12.35;;;;;;;12.89;54.33;95428.31;5117282;28;20199;-65
2022/05/09 07:09:40;;;;;;;16.08;13.30;;;;;;;12.97;53.79;95424.59;5117766;28;20184;-65
2022/05/09 07:12:07;;;;;;;10.15;9.05;;;;;;;13.04;53.58;95426.72;5117205;28;20526;-65
2022/05/09 07:14:35;;;;;;;11.15;9.43;;;;;;;13.08;53.32;95425.63;5116954;28;20256;-65
2022/05/09 07:17:02;;;;;;;10.98;9.82;;;;;;;13.13;53.64;95421.78;5116881;28;20196;-65
2022/05/09 07:19:29;;;;;;;10.63;8.73;;;;;;;13.18;52.98;95418.72;5117656;28;20184;-65
2022/05/09 07:21:56;;;;;;;10.35;9.35;;;;;;;13.29;53.33;95427.31;5117667;28;20192;-65
2022/05/09 07:24:23;;;;;;;10.45;8.40;;;;;;;13.40;52.37;95423.63;5116430;28;20643;-65
2022/05/09 07:26:50;;;;;;;7.65;6.90;;;;;;;13.49;52.73;95415.91;5117099;28;20196;-65
2022/05/09 07:29:17;;;;;;;7.65;6.00;;;;;;;13.64;52.13;95419.78;5117467;28;20184;-65
2022/05/09 07:31:45;;;;;;;7.70;6.03;;;;;;;13.75;51.69;95427.50;5116354;28;20203;-65
2022/05/09 07:34:12;;;;;;;7.85;5.25;;;;;;;13.83;50.06;95421.72;5116631;28;20199;-65
2022/05/09 07:36:39;;;;;;;6.88;5.50;;;;;;;13.85;50.47;95422.19;5116392;28;20218;-65
2022/05/09 07:39:06;;;;;;;7.22;5.35;;;;;;;13.91;50.80;95420.72;5117275;28;20241;-65
2022/05/09 07:41:33;;;;;;;10.95;6.35;;;;;;;14.10;51.89;95424.66;5116341;28;20188;-65
2022/05/09 07:44:00;;;;;;;10.45;5.30;;;;;;;14.31;50.16;95424.25;5115796;28;20215;-65
2022/05/09 07:46:27;;;;;;;8.50;5.55;;;;;;;14.37;50.38;95431.88;5117146;28;20184;-65
2022/05/09 07:48:55;;;;;;;6.13;5.00;;;;;;;14.56;49.49;95424.72;5117143;28;20188;-65
2022/05/09 07:51:22;;;;;;;6.25;5.47;;;;;;;14.70;49.94;95422.19;5117084;28;20195;-65
2022/05/09 07:53:49;;;;;;;5.75;5.10;;;;;;;14.78;48.50;95417.56;5116610;28;20198;-65
2022/05/09 07:56:16;;;;;;;7.03;4.85;;;;;;;14.80;48.40;95420.78;5117405;28;20203;-65
2022/05/09 07:58:43;;;;;;;6.10;5.25;;;;;;;14.85;47.84;95426.81;5115663;28;20188;-65
2022/05/09 08:01:10;;;;;;;9.38;6.15;;;;;;;14.85;47.73;95418.50;5116778;28;20180;-65
2022/05/09 08:03:38;;;;;;;7.63;6.03;;;;;;;15.22;48.79;95425.41;5115705;28;20220;-65
2022/05/09 08:06:07;;;;;;;7.55;5.18;;;;;;;15.41;49.35;95414.16;5115731;28;20589;-65
2022/05/09 08:08:37;;;;;;;6.97;5.07;;;;;;;15.55;48.25;95410.78;5115415;28;20196;-65
2022/05/09 08:11:05;;;;;;;8.27;5.25;;;;;;;15.71;48.04;95416.97;5115977;28;20184;-65
2022/05/09 08:13:34;;;;;;;5.90;5.00;;;;;;;15.91;47.33;95414.06;5116468;28;20188;-65
2022/05/09 08:16:02;;;;;;;5.10;4.55;;;;;;;16.05;46.62;95415.03;5115583;28;20547;-65
2022/05/09 08:18:31;;;;;;;5.18;4.68;;;;;;;16.07;47.71;95422.97;5116387;28;20188;-65
2022/05/09 08:20:59;;;;;;;5.72;4.43;;;;;;;16.07;46.61;95415.44;5116631;28;20180;-65
2022/05/09 08:23:30;;;;;;;5.93;4.00;;;;;;;16.27;47.60;95416.06;5116337;28;20239;-65
2022/05/09 08:25:58;;;;;;;5.28;3.78;;;;;;;16.36;45.51;95415.75;5116240;28;20199;-65
2022/05/09 08:28:25;;;;;;;4.13;3.72;;;;;;;16.45;45.98;95418.22;5116410;28;20275;-65
2022/05/09 08:30:52;;;;;;;5.45;3.70;;;;;;;16.61;45.90;95421.56;5115460;28;20188;-65
2022/05/09 08:33:21;;;;;;;5.22;3.20;;;;;;;16.79;44.39;95414.22;5114981;28;20226;-65
2022/05/09 08:35:49;;;;;;;4.30;3.17;;;;;;;16.85;45.64;95414.66;5115145;28;20205;-65
2022/05/09 08:38:17;;;;;;;3.90;2.90;;;;;;;17.01;43.80;95411.59;5115165;28;20207;-65
2022/05/09 08:41:03;;;;;;;4.68;3.00;;;;;;;17.09;39.31;95405.69;5115623;28;20280;-65
2022/05/09 08:43:45;;;;;;;3.10;2.80;;;;;;;17.16;38.86;95415.28;5116000;28;20200;-65
2022/05/09 08:46:16;;;;;;;5.63;2.53;;;;;;;17.21;35.63;95409.34;5115255;28;20196;-65
2022/05/09 08:48:58;;;;;;;4.70;2.80;;;;;;;17.28;35.40;95406.59;5114995;28;20195;-65
2022/05/09 08:51:36;;;;;;;3.38;2.80;;;;;;;17.39;38.85;95406.69;5115621;28;20599;-65
2022/05/09 08:54:06;;;;;;;2.70;2.35;;;;;;;17.36;35.74;95402.69;5116263;28;20188;-65
2022/05/09 08:56:35;;;;;;;3.75;2.80;;;;;;;17.30;35.62;95410.63;5115982;28;20204;-65
2022/05/09 08:59:05;;;;;;;4.97;4.57;;;;;;;17.57;33.87;95404.78;5114931;28;20192;-66
2022/05/09 09:01:37;;;;;;;4.57;4.18;;;;;;;17.73;35.75;95401.72;5114857;28;20208;-65
2022/05/09 09:04:06;;;;;;;4.78;3.50;;;;;;;17.80;36.27;95404.56;5114754;28;20655;-65
2022/05/09 09:06:44;;;;;;;3.63;3.03;;;;;;;17.99;38.53;95409.03;5115134;28;20203;-65
2022/05/09 09:09:20;;;;;;;2.97;2.67;;;;;;;18.21;37.36;95402.31;5115706;28;20183;-65
2022/05/09 09:11:54;;;;;;;3.83;2.45;;;;;;;18.17;35.78;95406.28;5097805;28;20217;-65
2022/05/09 09:14:30;;;;;;;3.45;2.80;;;;;;;18.14;37.45;95405.09;5116022;28;20184;-65
2022/05/09 09:17:19;;;;;;;3.28;2.30;;;;;;;18.28;35.00;95399.53;5114920;28;20197;-65
2022/05/09 09:19:59;;;;;;;2.65;2.13;;;;;;;18.38;37.04;95395.19;5114579;28;20195;-65
2022/05/09 09:22:41;;;;;;;3.67;2.75;;;;;;;18.60;37.18;95396.03;5114860;28;20195;-65
2022/05/09 09:25:17;;;;;;;2.70;2.42;;;;;;;18.65;36.57;95394.81;5114751;28;20200;-65
2022/05/09 09:27:47;;;;;;;7.50;2.88;;;;;;;18.81;36.38;95392.50;5114556;28;20187;-65
2022/05/09 09:30:16;;;;;;;3.85;2.65;;;;;;;18.98;35.59;95394.47;5114721;28;20188;-65
2022/05/09 09:32:45;;;;;;;2.90;2.45;;;;;;;19.04;34.06;95389.28;5114545;28;20196;-65
2022/05/09 09:35:14;;;;;;;2.78;2.47;;;;;;;19.05;33.24;95390.09;5114791;28;20199;-65
2022/05/09 09:37:46;;;;;;;3.33;2.10;;;;;;;19.16;31.83;95376.91;5115327;28;20188;-65
2022/05/09 09:40:13;;;;;;;2.78;1.90;;;;;;;19.23;32.47;95386.06;5115048;28;20243;-65
2022/05/09 09:42:40;;;;;;;2.10;1.80;;;;;;;19.39;23.82;95382.88;5115445;28;20218;-65
2022/05/09 09:45:25;;;;;;;1.63;1.40;;;;;;;19.36;25.86;95380.88;5115024;28;20645;-65
2022/05/09 09:48:07;;;;;;;3.95;2.20;;;;;;;19.40;29.67;95378.06;5118134;28;20205;-65
2022/05/09 09:50:34;;;;;;;3.20;1.92;;;;;;;19.44;30.61;95387.25;5118881;28;20534;-65
2022/05/09 09:53:02;;;;;;;2.33;2.00;;;;;;;19.45;27.07;95377.66;5118993;28;20207;-66
2022/05/09 09:55:32;;;;;;;4.00;2.55;;;;;;;19.49;29.18;95373.63;5118402;28;20257;-66
2022/05/09 09:58:01;;;;;;;3.08;2.58;;;;;;;19.60;32.42;95370.00;5118435;28;20192;-65
2022/05/09 10:00:31;;;;;;;2.50;2.30;;;;;;;19.70;31.87;95366.41;5119484;28;20199;-65
2022/05/09 10:03:15;;;;;;;2.15;2.05;;;;;;;19.86;30.56;95358.38;5119176;28;20280;-65
2022/05/09 10:08:32;;;;;;;3.17;2.33;;;;;;;20.10;30.96;95359.44;5118690;28;20204;-65
2022/05/09 10:11:04;;;;;;;2.90;1.98;;;;;;;20.19;26.17;95359.03;5118072;28;20207;-65
2022/05/09 10:13:42;;;;;;;1.98;1.80;;;;;;;20.22;27.32;95363.00;5119034;28;20188;-65
2022/05/09 10:16:12;;;;;;;3.75;1.80;;;;;;;20.27;27.29;95366.19;5118723;28;20187;-65
2022/05/09 10:18:42;;;;;;;1.90;1.80;;;;;;;20.26;26.32;95367.38;5119119;28;20194;-65
2022/05/09 10:24:47;;;;;;;3.30;1.90;;;;;;;20.18;24.88;95363.00;5117775;28;20210;-65
2022/05/09 10:26:55;;;;;;;1.80;1.70;;;;;;;20.31;25.44;95363.34;5117807;28;20203;-65
2022/05/09 10:29:23;;;;;;;1.80;1.70;;;;;;;20.38;26.76;95355.69;5117629;28;20210;-65
2022/05/09 10:31:53;;;;;;;2.30;2.10;;;;;;;20.52;27.91;95365.25;5117683;28;20599;-65
2022/05/09 10:34:26;;;;;;;4.80;1.95;;;;;;;20.44;24.73;95358.84;5117460;28;20195;-65
2022/05/09 10:36:56;;;;;;;2.65;1.77;;;;;;;20.39;25.77;95356.50;5118645;28;20262;-65
2022/05/09 10:39:27;;;;;;;1.95;1.75;;;;;;;20.46;27.14;95355.66;5117523;28;20226;-65
2022/05/09 10:41:57;;;;;;;1.60;1.40;;;;;;;20.60;23.19;95355.59;5118129;28;20657;-65
2022/05/09 10:44:29;;;;;;;2.03;1.45;;;;;;;20.58;22.42;95352.41;5117404;28;20219;-65
2022/05/09 10:47:01;;;;;;;1.42;1.35;;;;;;;20.73;25.88;95355.88;5117215;28;20200;-65
2022/05/09 10:49:33;;;;;;;1.95;1.50;;;;;;;20.91;24.91;95345.31;5117407;28;20204;-65
2022/05/09 10:52:08;;;;;;;1.60;1.50;;;;;;;20.94;26.59;95350.13;5117828;28;20198;-65
2022/05/09 10:54:44;;;;;;;2.30;2.10;;;;;;;21.01;26.15;95346.47;5117277;28;20193;-65
2022/05/09 10:57:18;;;;;;;2.25;1.80;;;;;;;20.95;25.52;95345.31;5117542;28;20214;-65
2022/05/09 10:59:45;;;;;;;1.98;1.80;;;;;;;20.96;26.40;95335.69;5117693;28;20195;-65
2022/05/09 11:02:21;;;;;;;2.40;2.20;;;;;;;21.10;27.31;95341.19;5118166;28;20275;-65
2022/05/09 11:04:48;;;;;;;1.98;1.60;;;;;;;21.12;26.47;95338.75;5117571;28;20213;-65
2022/05/09 11:07:23;;;;;;;1.73;1.60;;;;;;;21.25;26.40;95336.22;5117950;28;20187;-65
2022/05/09 11:10:01;;;;;;;1.60;1.50;;;;;;;21.23;23.77;95319.81;5116921;28;20191;-65
2022/05/09 11:12:52;;;;;;;1.65;1.55;;;;;;;21.22;24.77;95320.22;5116712;28;20195;-65
2022/05/09 11:15:30;;;;;;;2.80;2.00;;;;;;;21.30;25.60;95325.34;5116524;28;20219;-65
2022/05/09 11:18:15;;;;;;;1.90;1.70;;;;;;;21.53;25.95;95329.53;5117827;28;20190;-65
2022/05/09 11:20:46;;;;;;;3.38;1.45;;;;;;;21.58;23.31;95326.28;5116928;28;20199;-65
2022/05/09 11:23:32;;;;;;;2.65;1.80;;;;;;;21.39;21.91;95324.91;5116589;28;20188;-65
2022/05/09 11:26:23;;;;;;;2.53;1.70;;;;;;;21.43;24.22;95331.25;5116686;28;20299;-65
2022/05/09 11:29:15;;;;;;;3.92;2.17;;;;;;;21.50;26.43;95319.16;5114936;28;20583;-65
2022/05/09 11:32:03;;;;;;;2.88;1.80;;;;;;;21.67;25.37;95320.16;5116097;28;20200;-65
2022/05/09 11:34:42;;;;;;;2.83;1.80;;;;;;;21.74;24.30;95315.25;5116572;28;20210;-65
2022/05/09 11:37:16;;;;;;;2.72;1.75;;;;;;;21.77;23.76;95314.41;5116084;28;20187;-65
2022/05/09 11:39:49;;;;;;;3.30;2.00;;;;;;;21.93;24.74;95308.19;5116785;28;20242;-65
2022/05/09 11:45:20;;;;;;;2.30;2.10;;;;;;;22.09;24.13;95307.59;5116914;28;20196;-65
2022/05/09 11:47:53;;;;;;;2.67;2.20;;;;;;;22.13;25.45;95308.34;5116176;28;20198;-65
2022/05/09 11:50:29;;;;;;;4.30;2.22;;;;;;;22.07;23.35;95304.41;5115733;28;20203;-65
2022/05/09 11:52:57;;;;;;;1.77;1.65;;;;;;;22.03;24.81;95298.03;5117085;27;20184;-65
2022/05/09 11:55:25;;;;;;;1.80;1.70;;;;;;;22.08;23.12;95301.19;5116926;28;20210;-65
2022/05/09 11:57:55;;;;;;;1.73;1.48;;;;;;;22.03;22.81;95295.25;5115633;28;20206;-65
2022/05/09 12:00:52;;;;;;;3.60;1.80;;;;;;;22.09;24.56;95288.72;5116266;28;20215;-65